Terminal Aerodrome Forecast
Issued by NWS

Home | Current Version | Previous Version | Text Only | Print | Product List | Glossary Off
Versions: 1 2 3 4 5 6 7 8 9 10 11 12 13 14 15 16 17 18 19 20

000
FTUS43 KFGF 281140
TAFBJI
TAF
KBJI 281140Z 2812/2912 VRB04KT 1/2SM FG BKN003
     FM281300 19005KT 3SM BR BKN005
     FM281400 20006KT P6SM FEW010 BKN250
     FM282200 20011G28KT P6SM SCT050 BKN200
     FM290000 20009KT P6SM VCTS SCT050CB BKN150
     FM290600 VRB04KT P6SM SKC=

USA.gov is the U.S. government's official web portal to all federal, state and local government web resources and services.